GABSDIYO

Guest
Details From GABS - Bamako Senou
To DIYO - YAMOUSSOUKRO
Flight Number -
Tags generated
Created
Modified
Stats Distance 387 nm / 718 km
Max Altitude 35,000 ft / 10,668 m
Waypoints 6
Social Downloads 0
Likes 0
Share VATSIM

Download

Looking for another format? Having issues loading an existing format? Contact us
Advertisement - Login to hide

Notes

Basic altitude profile: - Ascent Rate: 2500ft/min - Ascent Speed: 250kts - Cruise Altitude: 35000ft - Cruise Speed: 420kts - Descent Rate: 1500ft/min - Descent Speed: 250kts Options: - Use NATs: yes - Use PACOTS: yes - Use low airways: yes - Use high airways: yes

Route

GABS POTAL G851F EDAMO UG851 BKY DIYO

ID Type Via Altitude Latitude Longitude Leg Dist Tot Dist Heading (true) Name
O GABS APT - 0 ft / 0 m 12.53354˚ -7.94994˚ - 0 nm - Bamako Senou
POTAL FIX - 27,600 ft / 8,412 m 11.39472˚ -7.23556˚ 80 nm 80 nm 148° / 149° -
EDAMO FIX G851F (AWY-LO) 23,500 ft / 7,163 m 10.79444˚ -6.87639˚ 41 nm 122 nm 150° / 150° -
GUREL FIX UG851 (AWY-HI) 35,000 ft / 10,668 m 10.08194˚ -6.45167˚ 49 nm 171 nm 150° / 150° -
BKY VOR UG851 (AWY-HI) 23,500 ft / 7,163 m 7.74728˚ -5.07494˚ 162 nm 333 nm 150° / 150° BOUAKE VOR-DME
O DIYO APT - 0 ft / 0 m 6.90317˚ -5.36558˚ 53 nm 387 nm 199° / 199° YAMOUSSOUKRO

Altitude Profile

Advertisement - Login to hide

Weather


0- 5 10 15 20 25 30 35+ Temperature / ° C

Clouds and Precipitation
Forecast for 2017-12-17 00:00 UTC. Updated 2 hours ago

Ground ~20,000 ft ~40,000 ft Winds

GABS

Details ICAO GABS (BKO)
Name Bamako Senou
Region Mali
Timezone Africa/Bamako (UTC+0.0)
Stats Elevation 1,246 ft / 380 m (AMSL)
Location 12.533544° -7.949943°
Runways 1
Magnetic Variation 4.160° W

METAR

GABS 162230Z 03006KT 8000 NSC 23/05 Q1016 NOSIG

Decode

TAF

TAF GABS 161700Z 1618/1724 06010KT 8000 NSC PROB40 TEMPO 1618/1622 4500 HZ PROB40 TEMPO 1623/1705 36008KT PROB40 TEMPO 1706/1710 4500 HZ

Decode

Departure Runways

ID Width Length Bearing (true) Bearing (mag) Surface Threshold Offset Overrun Length
06 148 ft / 45 m 8,888 ft / 2,709 m 56.51° 60.67° Asphalt 0 ft / 0 m 327 ft / 100 m
24 148 ft / 45 m 8,888 ft / 2,709 m 236.51° 240.67° Asphalt 0 ft / 0 m 327 ft / 100 m

DIYO

Details ICAO DIYO (ASK)
Name YAMOUSSOUKRO
Region Côte d'Ivoire
Timezone Africa/Abidjan (UTC+0.0)
Stats Elevation 699 ft / 213 m (AMSL)
Location 6.903166° -5.365579°
Runways 1
Magnetic Variation 4.682° W

METAR

DIYO 162200Z 00000KT 5000 BR NSC 25/24 Q1013 NOSIG

Decode

TAF

TAF DIYO 161700Z 1618/1718 02006KT 4000 HZ NSC PROB30 1704/1709 2500 BR PROB30 TEMPO 1705/1707 0800 FG

Decode

Destination Runways

ID Width Length Bearing (true) Bearing (mag) Surface Threshold Offset Overrun Length
05 148 ft / 45 m 9,946 ft / 3,032 m 41.92° 46.60° Asphalt 0 ft / 0 m 330 ft / 101 m
23 148 ft / 45 m 9,946 ft / 3,032 m 221.92° 226.60° Asphalt 0 ft / 0 m 330 ft / 101 m